createdAt,value
2023-04-05T00:01:37.202Z,53.94
2023-04-05T00:04:05.284Z,55.03
2023-04-05T00:06:32.169Z,55.07
2023-04-05T00:09:00.055Z,55.23
2023-04-05T00:11:28.732Z,54.48
2023-04-05T00:13:55.999Z,54.18
2023-04-05T00:16:22.939Z,54.77
2023-04-05T00:18:49.610Z,54.59
2023-04-05T00:21:16.819Z,54.21
2023-04-05T00:23:43.478Z,53.60
2023-04-05T00:26:11.832Z,53.61
2023-04-05T00:28:38.518Z,54.87
2023-04-05T00:31:06.189Z,55.30
2023-04-05T00:33:33.033Z,55.55
2023-04-05T00:36:12.138Z,54.66
2023-04-05T00:38:40.582Z,56.18
2023-04-05T00:41:08.448Z,54.82
2023-04-05T00:43:35.179Z,54.56
2023-04-05T00:46:02.142Z,54.13
2023-04-05T00:48:29.233Z,55.40
2023-04-05T00:50:58.024Z,55.19
2023-04-05T00:53:24.859Z,55.30
2023-04-05T00:55:51.493Z,55.36
2023-04-05T00:58:19.245Z,55.90
2023-04-05T01:01:00.772Z,55.75
2023-04-05T01:03:30.066Z,56.17
2023-04-05T01:05:59.811Z,56.34
2023-04-05T01:08:31.783Z,56.64
2023-04-05T01:11:02.760Z,57.44
2023-04-05T01:13:30.153Z,56.79
2023-04-05T01:15:56.878Z,56.90
2023-04-05T01:18:23.847Z,56.30
2023-04-05T01:21:35.211Z,57.01
2023-04-05T01:24:16.735Z,56.84
2023-04-05T01:27:32.512Z,57.28
2023-04-05T01:30:12.745Z,55.59
2023-04-05T01:32:59.284Z,56.99
2023-04-05T01:35:50.834Z,55.74
2023-04-05T01:38:20.075Z,56.41
2023-04-05T01:40:47.743Z,56.09
2023-04-05T01:43:15.716Z,55.92
2023-04-05T01:45:43.157Z,57.45
2023-04-05T01:48:09.829Z,57.11
2023-04-05T01:50:36.777Z,57.21
2023-04-05T01:53:03.414Z,56.85
2023-04-05T01:55:30.071Z,57.17
2023-04-05T01:57:58.119Z,57.37
2023-04-05T02:00:25.226Z,56.68
2023-04-05T02:02:52.040Z,57.46
2023-04-05T02:05:18.734Z,56.82
2023-04-05T02:07:45.574Z,57.62
2023-04-05T02:10:12.266Z,56.16
2023-04-05T02:12:39.044Z,55.71
2023-04-05T02:15:06.278Z,56.84
2023-04-05T02:17:32.925Z,58.12
2023-04-05T02:20:00.618Z,58.41
2023-04-05T02:22:27.244Z,58.67
2023-04-05T02:24:53.908Z,58.41
2023-04-05T02:27:20.578Z,58.35
2023-04-05T02:29:47.238Z,57.54
2023-04-05T02:32:14.014Z,58.32
2023-04-05T02:34:40.849Z,58.72
2023-04-05T02:37:07.717Z,58.31
2023-04-05T02:39:34.359Z,57.60
2023-04-05T02:42:01.001Z,58.56
2023-04-05T02:44:28.305Z,59.17
2023-04-05T02:46:55.018Z,56.85
2023-04-05T02:49:21.648Z,58.11
2023-04-05T02:51:48.313Z,56.58
2023-04-05T02:54:15.261Z,59.03
2023-04-05T02:56:41.881Z,56.78
2023-04-05T02:59:08.547Z,57.66
2023-04-05T03:01:35.650Z,58.13
2023-04-05T03:04:02.919Z,58.64
2023-04-05T03:06:29.614Z,58.31
2023-04-05T03:08:56.250Z,57.13
2023-04-05T03:11:23.108Z,57.86
2023-04-05T03:13:49.832Z,58.23
2023-04-05T03:16:16.688Z,57.48
2023-04-05T03:18:43.347Z,58.33
2023-04-05T03:21:10.056Z,58.38
2023-04-05T03:23:36.755Z,58.89
2023-04-05T03:26:04.097Z,57.88
2023-04-05T03:28:31.762Z,57.61
2023-04-05T03:30:59.219Z,57.90
2023-04-05T03:33:25.999Z,58.14
2023-04-05T03:35:52.793Z,57.74
2023-04-05T03:38:19.568Z,57.12
2023-04-05T03:40:46.365Z,57.66
2023-04-05T03:43:13.013Z,57.68
2023-04-05T03:45:39.848Z,58.32
2023-04-05T03:48:06.848Z,57.77
2023-04-05T03:50:33.701Z,57.13
2023-04-05T03:53:00.301Z,57.24
2023-04-05T03:55:27.192Z,58.49
2023-04-05T03:57:53.902Z,59.12
2023-04-05T04:00:20.756Z,59.25
2023-04-05T04:02:48.419Z,58.88
2023-04-05T04:05:17.261Z,58.89
2023-04-05T04:07:44.664Z,58.91
2023-04-05T04:10:13.977Z,60.06
2023-04-05T04:12:40.586Z,59.83
2023-04-05T04:15:07.717Z,60.05
2023-04-05T04:17:36.814Z,60.26
2023-04-05T04:20:04.834Z,59.77
2023-04-05T04:22:31.488Z,59.49
2023-04-05T04:24:58.459Z,59.61
2023-04-05T04:27:25.173Z,59.40
2023-04-05T04:29:51.827Z,59.39
2023-04-05T04:32:18.579Z,59.28
2023-04-05T04:34:45.231Z,59.54
2023-04-05T04:37:14.555Z,60.13
2023-04-05T04:39:41.232Z,60.10
2023-04-05T04:42:07.906Z,60.44
2023-04-05T04:44:34.553Z,59.55
2023-04-05T04:47:01.236Z,60.01
2023-04-05T04:49:27.882Z,60.09
2023-04-05T04:51:54.576Z,59.44
2023-04-05T04:54:21.208Z,59.53
2023-04-05T04:56:47.941Z,59.85
2023-04-05T04:59:14.856Z,60.58
2023-04-05T05:01:44.511Z,60.83
2023-04-05T05:04:11.439Z,61.18
2023-04-05T05:06:38.152Z,61.45
2023-04-05T05:09:04.803Z,61.53
2023-04-05T05:11:32.391Z,61.15
2023-04-05T05:13:59.193Z,59.83
2023-04-05T05:16:25.903Z,60.28
2023-04-05T05:18:52.574Z,60.23
2023-04-05T05:21:19.288Z,61.41
2023-04-05T05:23:46.110Z,61.19
2023-04-05T05:26:13.172Z,61.24
2023-04-05T05:28:39.987Z,60.67
2023-04-05T05:31:06.732Z,59.59
2023-04-05T05:33:33.416Z,60.11
2023-04-05T05:36:00.175Z,61.83
2023-04-05T05:38:26.923Z,60.59
2023-04-05T05:40:57.653Z,61.12
2023-04-05T05:43:24.354Z,61.02
2023-04-05T05:45:51.024Z,61.16
2023-04-05T05:48:17.633Z,60.89
2023-04-05T05:50:44.974Z,61.36
2023-04-05T05:53:11.798Z,60.23
2023-04-05T05:55:38.437Z,60.05
2023-04-05T05:58:05.101Z,61.38
2023-04-05T06:00:31.821Z,60.04
2023-04-05T06:02:58.623Z,58.28
2023-04-05T06:05:25.294Z,59.27
2023-04-05T06:07:51.913Z,57.49
2023-04-05T06:10:21.234Z,55.85
2023-04-05T06:12:47.852Z,56.50
2023-04-05T06:15:14.743Z,55.22
2023-04-05T06:17:41.466Z,55.79
2023-04-05T06:20:10.997Z,55.26
2023-04-05T06:22:40.873Z,55.44
2023-04-05T06:25:08.974Z,54.46
2023-04-05T06:27:35.725Z,54.68
2023-04-05T06:30:03.562Z,53.99
2023-04-05T06:32:30.230Z,53.17
2023-04-05T06:34:56.907Z,55.86
2023-04-05T06:37:23.711Z,53.89
2023-04-05T06:39:50.360Z,51.71
2023-04-05T06:42:17.012Z,52.79
2023-04-05T06:44:43.638Z,52.32
2023-04-05T06:47:10.648Z,51.39
2023-04-05T06:49:37.281Z,50.53
2023-04-05T06:52:04.119Z,50.80
2023-04-05T06:54:30.800Z,50.30
2023-04-05T06:56:58.511Z,50.38
2023-04-05T06:59:29.046Z,50.34
2023-04-05T07:01:56.293Z,50.08
2023-04-05T07:04:23.212Z,50.35
2023-04-05T07:06:49.871Z,50.41
2023-04-05T07:09:16.516Z,48.39
2023-04-05T07:11:43.158Z,49.18
2023-04-05T07:14:09.847Z,48.71
2023-04-05T07:16:36.463Z,49.03
2023-04-05T07:19:03.175Z,49.46
2023-04-05T07:21:29.851Z,48.38
2023-04-05T07:23:56.517Z,49.47
2023-04-05T07:26:23.255Z,49.20
2023-04-05T07:28:49.975Z,48.57
2023-04-05T07:31:16.634Z,47.53
2023-04-05T07:33:43.371Z,46.73
2023-04-05T07:36:10.274Z,45.95
2023-04-05T07:38:37.003Z,47.20
2023-04-05T07:41:03.611Z,46.55
2023-04-05T07:43:30.483Z,47.24
2023-04-05T07:46:06.157Z,46.05
2023-04-05T07:48:33.051Z,46.05
2023-04-05T07:51:06.734Z,45.99
2023-04-05T07:53:34.425Z,46.84
2023-04-05T07:56:09.036Z,47.10
2023-04-05T07:58:36.864Z,45.87
2023-04-05T08:01:04.565Z,46.71
2023-04-05T08:03:32.179Z,45.79
2023-04-05T08:05:58.895Z,44.49
2023-04-05T08:08:25.720Z,47.31
2023-04-05T08:10:52.726Z,44.54
2023-04-05T08:13:19.353Z,44.29
2023-04-05T08:15:45.988Z,44.59
2023-04-05T08:18:12.694Z,43.47
2023-04-05T08:20:39.812Z,42.88
2023-04-05T08:23:06.562Z,42.94
2023-04-05T08:25:33.289Z,43.44
2023-04-05T08:28:00.173Z,45.58
2023-04-05T08:30:26.808Z,43.77
2023-04-05T08:32:53.470Z,44.62
2023-04-05T08:35:20.356Z,45.33
2023-04-05T08:37:49.969Z,44.98
2023-04-05T08:40:16.646Z,43.03
2023-04-05T08:42:47.259Z,44.45
2023-04-05T08:45:15.029Z,44.15
2023-04-05T08:47:42.364Z,42.95
2023-04-05T08:50:10.715Z,43.54
2023-04-05T08:52:38.476Z,43.23
2023-04-05T08:55:09.135Z,43.20
2023-04-05T08:57:39.509Z,47.22
2023-04-05T09:00:10.558Z,46.09
2023-04-05T09:02:38.114Z,44.35
2023-04-05T09:05:09.352Z,41.88
2023-04-05T09:07:37.638Z,43.89
2023-04-05T09:10:06.678Z,41.83
2023-04-05T09:12:35.642Z,42.40
2023-04-05T09:15:02.356Z,44.01
2023-04-05T09:17:29.227Z,40.56
2023-04-05T09:19:55.860Z,39.63
2023-04-05T09:22:23.229Z,44.41
2023-04-05T09:24:50.014Z,42.59
2023-04-05T09:27:19.008Z,41.19
2023-04-05T09:29:48.037Z,40.52
2023-04-05T09:32:16.478Z,40.66
2023-04-05T09:34:43.959Z,42.77
2023-04-05T09:37:21.965Z,41.73
2023-04-05T09:39:50.325Z,41.42
2023-04-05T09:42:19.020Z,41.50
2023-04-05T09:44:59.469Z,42.11
2023-04-05T09:47:29.933Z,39.86
2023-04-05T09:49:57.727Z,40.76
2023-04-05T09:52:30.147Z,38.85
2023-04-05T09:54:58.929Z,42.49
2023-04-05T09:57:29.205Z,40.70
2023-04-05T09:59:56.228Z,37.63
2023-04-05T10:02:23.238Z,39.42
2023-04-05T10:04:50.404Z,39.92
2023-04-05T10:07:19.013Z,42.47
2023-04-05T10:09:47.422Z,40.43
2023-04-05T10:12:25.746Z,38.84
2023-04-05T10:14:52.851Z,36.89
2023-04-05T10:17:58.126Z,43.95
2023-04-05T10:20:25.383Z,38.09
2023-04-05T10:22:52.028Z,40.02
2023-04-05T10:25:26.134Z,37.81
2023-04-05T10:28:04.078Z,36.25
2023-04-05T10:30:36.459Z,36.65
2023-04-05T10:33:20.806Z,37.25
2023-04-05T10:35:56.342Z,37.83
2023-04-05T10:38:27.661Z,37.68
2023-04-05T10:41:09.475Z,36.09
2023-04-05T10:43:39.422Z,38.03
2023-04-05T10:46:07.867Z,36.02
2023-04-05T10:48:41.111Z,35.06
2023-04-05T10:51:07.760Z,36.94
2023-04-05T10:53:34.400Z,37.22
2023-04-05T10:56:02.004Z,38.59
2023-04-05T10:58:31.123Z,39.72
2023-04-05T11:00:59.081Z,38.13
2023-04-05T11:03:53.370Z,36.16
2023-04-05T11:06:19.977Z,35.38
2023-04-05T11:08:48.078Z,35.17
2023-04-05T11:11:18.097Z,35.54
2023-04-05T11:13:52.711Z,35.75
2023-04-05T11:16:20.618Z,35.25
2023-04-05T11:18:49.671Z,36.38
2023-04-05T11:21:24.762Z,37.62
2023-04-05T11:24:08.726Z,34.90
2023-04-05T11:26:41.178Z,34.83
2023-04-05T11:29:08.112Z,39.11
2023-04-05T11:31:34.907Z,36.11
2023-04-05T11:34:05.761Z,33.16
2023-04-05T11:36:35.402Z,36.13
2023-04-05T11:39:20.233Z,32.82
2023-04-05T11:41:50.096Z,34.83
2023-04-05T11:44:17.123Z,34.92
2023-04-05T11:46:43.826Z,36.52
2023-04-05T11:49:10.705Z,34.15
2023-04-05T11:51:37.636Z,34.75
2023-04-05T11:54:04.295Z,32.39
2023-04-05T11:56:32.946Z,34.51
2023-04-05T11:59:01.125Z,34.90
2023-04-05T12:01:27.899Z,34.06
2023-04-05T12:03:55.647Z,34.48
2023-04-05T12:06:24.481Z,34.89
2023-04-05T12:08:52.019Z,33.41
2023-04-05T12:11:26.715Z,32.58
2023-04-05T12:13:57.519Z,32.75
2023-04-05T12:16:24.707Z,34.35
2023-04-05T12:18:55.408Z,32.79
2023-04-05T12:21:22.934Z,33.41
2023-04-05T12:23:53.306Z,34.03
2023-04-05T12:26:20.379Z,33.80
2023-04-05T12:28:56.668Z,34.58
2023-04-05T12:31:35.871Z,33.86
2023-04-05T12:34:02.632Z,33.98
2023-04-05T12:36:30.765Z,35.71
2023-04-05T12:38:57.491Z,32.75
2023-04-05T12:41:33.850Z,32.76
2023-04-05T12:44:05.664Z,34.47
2023-04-05T12:46:44.474Z,31.43
2023-04-05T12:49:12.775Z,31.44
2023-04-05T12:51:44.098Z,33.97
2023-04-05T12:54:23.973Z,36.95
2023-04-05T12:56:51.322Z,31.90
2023-04-05T12:59:18.198Z,32.07
2023-04-05T13:01:44.954Z,31.78
2023-04-05T13:06:41.411Z,33.47
2023-04-05T13:09:08.047Z,31.87
2023-04-05T13:11:34.630Z,28.93
2023-04-05T13:14:01.426Z,27.66
2023-04-05T13:16:28.178Z,31.10
2023-04-05T13:18:54.900Z,33.07
2023-04-05T13:21:21.533Z,32.53
2023-04-05T13:23:48.356Z,32.12
2023-04-05T13:26:15.199Z,31.97
2023-04-05T13:28:41.962Z,29.99
2023-04-05T13:31:08.688Z,30.27
2023-04-05T13:33:35.377Z,28.60
2023-04-05T13:36:05.122Z,28.86
2023-04-05T13:38:31.796Z,31.40
2023-04-05T13:40:58.461Z,29.95
2023-04-05T13:43:25.225Z,28.23
2023-04-05T13:45:51.830Z,28.34
2023-04-05T13:48:18.436Z,30.02
2023-04-05T13:50:45.668Z,29.09
2023-04-05T13:53:12.328Z,28.09
2023-04-05T13:55:39.075Z,28.40
2023-04-05T13:58:05.817Z,31.63
2023-04-05T14:00:32.562Z,31.39
2023-04-05T14:02:59.333Z,28.15
2023-04-05T14:05:26.037Z,31.76
2023-04-05T14:07:52.880Z,29.78
2023-04-05T14:10:19.718Z,33.86
2023-04-05T14:12:46.382Z,31.94
2023-04-05T14:15:13.122Z,29.55
2023-04-05T14:17:39.877Z,30.15
2023-04-05T14:20:07.162Z,30.48
2023-04-05T14:22:33.807Z,30.01
2023-04-05T14:25:00.545Z,30.77
2023-04-05T14:27:27.353Z,28.71
2023-04-05T14:29:54.825Z,29.29
2023-04-05T14:32:21.483Z,30.41
2023-04-05T14:34:48.232Z,29.77
2023-04-05T14:37:14.879Z,29.82
2023-04-05T14:39:41.564Z,28.50
2023-04-05T14:42:08.179Z,29.06
2023-04-05T14:44:34.785Z,30.41
2023-04-05T14:47:01.458Z,30.50
2023-04-05T14:49:28.116Z,30.87
2023-04-05T14:51:54.748Z,29.73
2023-04-05T14:54:21.391Z,28.01
2023-04-05T14:56:48.058Z,30.84
2023-04-05T14:59:14.940Z,29.93
2023-04-05T15:01:41.949Z,30.51
2023-04-05T15:04:09.460Z,29.98
2023-04-05T15:06:36.253Z,28.89
2023-04-05T15:09:02.973Z,29.00
2023-04-05T15:11:29.918Z,29.54
2023-04-05T15:13:56.568Z,28.03
2023-04-05T15:16:23.178Z,28.21
2023-04-05T15:18:49.796Z,26.97
2023-04-05T15:21:17.102Z,27.89
2023-04-05T15:23:43.758Z,27.02
2023-04-05T15:26:10.404Z,30.29
2023-04-05T15:28:37.040Z,28.77
2023-04-05T15:31:03.829Z,27.65
2023-04-05T15:33:30.428Z,28.36
2023-04-05T15:35:57.153Z,28.45
2023-04-05T15:38:23.842Z,26.02
2023-04-05T15:40:50.563Z,26.24
2023-04-05T15:43:17.196Z,26.19
2023-04-05T15:45:43.962Z,28.00
2023-04-05T15:48:10.647Z,28.12
2023-04-05T15:50:37.660Z,28.98
2023-04-05T15:53:04.380Z,28.42
2023-04-05T15:55:31.088Z,27.99
2023-04-05T15:57:57.681Z,26.91
2023-04-05T16:00:24.422Z,27.96
2023-04-05T16:02:54.740Z,27.43
2023-04-05T16:05:22.257Z,27.18
2023-04-05T16:07:48.900Z,29.10
2023-04-05T16:10:15.649Z,29.55
2023-04-05T16:12:42.368Z,30.98
2023-04-05T16:15:09.416Z,29.32
2023-04-05T16:17:36.410Z,30.88
2023-04-05T16:20:03.312Z,29.70
2023-04-05T16:22:30.882Z,31.02
2023-04-05T16:24:57.466Z,30.08
2023-04-05T16:27:24.346Z,31.43
2023-04-05T16:29:51.005Z,31.68
2023-04-05T16:32:17.768Z,32.35
2023-04-05T16:34:44.519Z,33.46
2023-04-05T16:37:11.149Z,31.62
2023-04-05T16:39:37.909Z,33.39
2023-04-05T16:42:04.644Z,32.97
2023-04-05T16:44:32.288Z,32.04
2023-04-05T16:46:59.060Z,34.89
2023-04-05T16:49:25.714Z,34.82
2023-04-05T16:51:52.442Z,36.12
2023-04-05T16:54:19.100Z,33.92
2023-04-05T16:56:45.736Z,36.11
2023-04-05T16:59:12.504Z,35.59
2023-04-05T17:01:39.276Z,35.17
2023-04-05T17:04:05.980Z,37.82
2023-04-05T17:06:32.619Z,37.74
2023-04-05T17:08:59.467Z,35.36
2023-04-05T17:11:26.460Z,35.63
2023-04-05T17:14:00.880Z,36.79
2023-04-05T17:16:27.710Z,37.57
2023-04-05T17:18:54.567Z,37.79
2023-04-05T17:21:21.338Z,37.61
2023-04-05T17:23:48.007Z,39.80
2023-04-05T17:26:14.756Z,38.79
2023-04-05T17:28:41.438Z,39.75
2023-04-05T17:31:08.454Z,40.95
2023-04-05T17:33:35.222Z,40.47
2023-04-05T17:36:02.107Z,40.76
2023-04-05T17:38:29.724Z,41.17
2023-04-05T17:40:56.379Z,40.07
2023-04-05T17:43:23.166Z,40.45
2023-04-05T17:45:49.874Z,40.58
2023-04-05T17:48:16.743Z,40.79
2023-04-05T17:50:43.577Z,40.91
2023-04-05T17:53:10.429Z,40.22
2023-04-05T17:55:37.056Z,41.80
2023-04-05T17:58:03.686Z,41.26
2023-04-05T18:00:30.392Z,40.43
2023-04-05T18:02:57.291Z,41.17
2023-04-05T18:05:24.256Z,41.45
2023-04-05T18:07:51.004Z,40.88
2023-04-05T18:10:17.653Z,41.71
2023-04-05T18:12:44.397Z,41.80
2023-04-05T18:15:11.249Z,41.21
2023-04-05T18:17:38.143Z,42.09
2023-04-05T18:20:05.591Z,42.42
2023-04-05T18:22:32.497Z,42.56
2023-04-05T18:24:59.488Z,43.87
2023-04-05T18:27:28.383Z,42.92
2023-04-05T18:29:55.192Z,42.88
2023-04-05T18:32:22.054Z,42.83
2023-04-05T18:34:48.727Z,43.87
2023-04-05T18:37:15.461Z,43.24
2023-04-05T18:39:42.188Z,43.10
2023-04-05T18:42:08.819Z,41.92
2023-04-05T18:44:35.469Z,42.43
2023-04-05T18:47:03.229Z,43.79
2023-04-05T18:49:29.875Z,44.86
2023-04-05T18:51:56.544Z,43.00
2023-04-05T18:54:23.318Z,42.82
2023-04-05T18:56:50.043Z,43.00
2023-04-05T18:59:16.918Z,45.27
2023-04-05T19:01:43.909Z,44.72
2023-04-05T19:04:10.565Z,43.90
2023-04-05T19:06:37.263Z,46.02
2023-04-05T19:09:03.889Z,45.30
2023-04-05T19:11:30.635Z,44.19
2023-04-05T19:13:57.326Z,43.92
2023-04-05T19:16:23.990Z,45.31
2023-04-05T19:18:50.848Z,45.13
2023-04-05T19:21:17.778Z,46.17
2023-04-05T19:23:44.469Z,45.72
2023-04-05T19:26:11.204Z,43.87
2023-04-05T19:28:37.851Z,45.48
2023-04-05T19:31:04.601Z,43.98
2023-04-05T19:33:31.254Z,43.76
2023-04-05T19:35:58.310Z,45.31
2023-04-05T19:38:25.138Z,45.28
2023-04-05T19:40:51.826Z,46.86
2023-04-05T19:43:18.511Z,44.86
2023-04-05T19:45:45.152Z,45.47
2023-04-05T19:48:39.253Z,46.18
2023-04-05T19:51:10.700Z,46.52
2023-04-05T19:53:47.223Z,46.40
2023-04-05T19:56:28.254Z,46.62
2023-04-05T19:59:14.732Z,45.14
2023-04-05T20:01:41.695Z,44.46
2023-04-05T20:04:16.333Z,44.69
2023-04-05T20:06:45.376Z,44.97
2023-04-05T20:09:14.014Z,45.63
2023-04-05T20:11:41.227Z,46.09
2023-04-05T20:14:08.913Z,46.08
2023-04-05T20:16:36.960Z,45.28
2023-04-05T20:19:06.344Z,45.67
2023-04-05T20:21:33.825Z,46.31
2023-04-05T20:24:01.638Z,46.82
2023-04-05T20:26:30.347Z,46.46
2023-04-05T20:28:59.680Z,46.65
2023-04-05T20:31:28.454Z,44.78
2023-04-05T20:33:55.060Z,45.02
2023-04-05T20:36:30.327Z,46.66
2023-04-05T20:38:57.785Z,47.06
2023-04-05T20:41:24.651Z,47.48
2023-04-05T20:43:51.363Z,45.78
2023-04-05T20:46:20.956Z,44.12
2023-04-05T20:48:48.441Z,44.79
2023-04-05T20:51:16.109Z,44.58
2023-04-05T20:53:43.365Z,44.90
2023-04-05T20:56:11.018Z,46.29
2023-04-05T20:58:39.323Z,47.52
2023-04-05T21:01:07.591Z,47.46
2023-04-05T21:03:36.487Z,45.37
2023-04-05T21:06:03.714Z,46.57
2023-04-05T21:08:31.180Z,45.81
2023-04-05T21:10:58.989Z,46.17
2023-04-05T21:13:25.790Z,46.74
2023-04-05T21:15:53.908Z,47.16
2023-04-05T21:18:20.784Z,46.86
2023-04-05T21:20:47.444Z,48.24
2023-04-05T21:23:14.074Z,47.25
2023-04-05T21:25:40.762Z,46.67
2023-04-05T21:28:07.460Z,47.97
2023-04-05T21:30:34.120Z,46.28
2023-04-05T21:33:00.783Z,47.80
2023-04-05T21:35:27.552Z,46.19
2023-04-05T21:37:54.271Z,46.39
2023-04-05T21:40:20.987Z,46.13
2023-04-05T21:42:47.605Z,47.09
2023-04-05T21:45:14.465Z,46.71
2023-04-05T21:47:41.359Z,46.94
2023-04-05T21:50:08.425Z,47.56
2023-04-05T21:52:36.521Z,46.69
2023-04-05T21:55:04.558Z,47.73
2023-04-05T21:57:31.766Z,47.21
2023-04-05T21:59:58.616Z,47.90
2023-04-05T22:02:25.415Z,49.79
2023-04-05T22:04:52.201Z,49.26
2023-04-05T22:07:18.893Z,49.90
2023-04-05T22:09:45.623Z,49.36
2023-04-05T22:12:12.272Z,47.96
2023-04-05T22:14:38.952Z,48.73
2023-04-05T22:17:05.551Z,50.17
2023-04-05T22:19:32.256Z,49.58
2023-04-05T22:21:59.018Z,49.72
2023-04-05T22:24:25.661Z,49.68
2023-04-05T22:26:55.350Z,49.88
2023-04-05T22:29:22.486Z,51.53
2023-04-05T22:31:50.105Z,50.23
2023-04-05T22:34:16.765Z,50.05
2023-04-05T22:36:43.478Z,49.27
2023-04-05T22:39:10.867Z,49.78
2023-04-05T22:41:38.234Z,49.86
2023-04-05T22:44:05.074Z,49.14
2023-04-05T22:46:31.911Z,49.46
2023-04-05T22:48:58.944Z,48.97
2023-04-05T22:51:25.724Z,49.04
2023-04-05T22:53:52.319Z,49.76
2023-04-05T22:56:18.902Z,50.68
2023-04-05T22:58:45.549Z,51.23
2023-04-05T23:01:12.156Z,51.10
2023-04-05T23:03:38.786Z,51.76
2023-04-05T23:06:05.574Z,51.55
2023-04-05T23:08:32.325Z,51.76
2023-04-05T23:10:59.058Z,51.68
2023-04-05T23:13:25.654Z,51.27
2023-04-05T23:15:52.326Z,50.79
2023-04-05T23:18:19.070Z,51.59
2023-04-05T23:20:45.695Z,52.38
2023-04-05T23:23:12.294Z,51.85
2023-04-05T23:25:38.936Z,51.59
2023-04-05T23:28:05.994Z,51.61
2023-04-05T23:30:32.866Z,51.01
2023-04-05T23:32:59.553Z,51.55
2023-04-05T23:35:26.424Z,51.14
2023-04-05T23:37:53.219Z,52.87
2023-04-05T23:40:20.642Z,53.39
2023-04-05T23:42:47.285Z,53.25
2023-04-05T23:45:14.012Z,53.50
2023-04-05T23:47:40.679Z,52.30
2023-04-05T23:50:08.434Z,52.66
2023-04-05T23:52:35.117Z,52.89
2023-04-05T23:55:01.803Z,53.48
2023-04-05T23:57:28.381Z,52.67
2023-04-05T23:59:55.131Z,52.97
